createdAt,value
2023-05-02T00:00:11.972Z,996.38
2023-05-02T00:01:11.934Z,996.35
2023-05-02T00:02:12.007Z,996.41
2023-05-02T00:03:12.013Z,996.45
2023-05-02T00:04:12.003Z,996.42
2023-05-02T00:05:11.921Z,996.42
2023-05-02T00:06:11.901Z,996.40
2023-05-02T00:07:11.902Z,996.39
2023-05-02T00:08:11.877Z,996.39
2023-05-02T00:09:11.854Z,996.41
2023-05-02T00:10:11.863Z,996.46
2023-05-02T00:11:11.824Z,996.46
2023-05-02T00:12:11.855Z,996.46
2023-05-02T00:13:11.806Z,996.51
2023-05-02T00:14:11.805Z,996.47
2023-05-02T00:15:11.805Z,996.56
2023-05-02T00:16:11.783Z,996.53
2023-05-02T00:17:11.799Z,996.54
2023-05-02T00:18:11.847Z,996.55
2023-05-02T00:19:11.746Z,996.56
2023-05-02T00:20:11.772Z,996.55
2023-05-02T00:21:11.727Z,996.53
2023-05-02T00:22:11.721Z,996.55
2023-05-02T00:23:11.699Z,996.54
2023-05-02T00:24:11.702Z,996.53
2023-05-02T00:25:11.700Z,996.52
2023-05-02T00:26:11.679Z,996.49
2023-05-02T00:27:11.688Z,996.48
2023-05-02T00:28:11.696Z,996.51
2023-05-02T00:29:11.660Z,996.48
2023-05-02T00:30:11.661Z,996.45
2023-05-02T00:31:11.649Z,996.42
2023-05-02T00:32:11.613Z,996.47
2023-05-02T00:33:11.700Z,996.52
2023-05-02T00:34:11.606Z,996.47
2023-05-02T00:35:11.609Z,996.50
2023-05-02T00:36:11.577Z,996.53
2023-05-02T00:37:11.558Z,996.51
2023-05-02T00:38:11.566Z,996.53
2023-05-02T00:39:11.544Z,996.52
2023-05-02T00:40:11.558Z,996.45
2023-05-02T00:41:11.517Z,996.49
2023-05-02T00:42:11.520Z,996.50
2023-05-02T00:43:11.500Z,996.51
2023-05-02T00:44:11.511Z,996.54
2023-05-02T00:45:11.499Z,996.57
2023-05-02T00:46:11.534Z,996.57
2023-05-02T00:47:11.467Z,996.60
2023-05-02T00:48:11.558Z,996.54
2023-05-02T00:49:11.436Z,996.56
2023-05-02T00:50:11.459Z,996.62
2023-05-02T00:51:11.411Z,996.57
2023-05-02T00:52:11.415Z,996.54
2023-05-02T00:53:11.403Z,996.55
2023-05-02T00:54:11.395Z,996.58
2023-05-02T00:55:11.399Z,996.61
2023-05-02T00:56:11.379Z,996.60
2023-05-02T00:57:11.374Z,996.58
2023-05-02T00:58:11.355Z,996.62
2023-05-02T00:59:11.334Z,996.61
2023-05-02T01:00:11.366Z,996.57
2023-05-02T01:01:11.347Z,996.57
2023-05-02T01:02:11.510Z,996.61
2023-05-02T01:03:11.408Z,996.57
2023-05-02T01:04:11.482Z,996.57
2023-05-02T01:05:11.316Z,996.60
2023-05-02T01:06:11.319Z,996.64
2023-05-02T01:07:11.249Z,996.63
2023-05-02T01:08:11.243Z,996.64
2023-05-02T01:09:11.227Z,996.68
2023-05-02T01:10:11.248Z,996.67
2023-05-02T01:11:11.203Z,996.67
2023-05-02T01:12:11.210Z,996.68
2023-05-02T01:13:11.205Z,996.64
2023-05-02T01:14:11.200Z,996.65
2023-05-02T01:15:11.186Z,996.67
2023-05-02T01:16:11.218Z,996.61
2023-05-02T01:17:11.155Z,996.65
2023-05-02T01:18:11.202Z,996.63
2023-05-02T01:19:11.132Z,996.65
2023-05-02T01:20:11.128Z,996.70
2023-05-02T01:21:11.116Z,996.68
2023-05-02T01:22:11.117Z,996.70
2023-05-02T01:23:11.092Z,996.65
2023-05-02T01:24:11.080Z,996.66
2023-05-02T01:25:11.081Z,996.68
2023-05-02T01:26:11.047Z,996.67
2023-05-02T01:27:11.049Z,996.64
2023-05-02T01:28:11.031Z,996.69
2023-05-02T01:29:11.037Z,996.67
2023-05-02T01:30:11.035Z,996.69
2023-05-02T01:31:11.031Z,996.72
2023-05-02T01:32:10.999Z,996.72
2023-05-02T01:33:11.033Z,996.73
2023-05-02T01:34:10.996Z,996.73
2023-05-02T01:35:10.974Z,996.73
2023-05-02T01:36:10.970Z,996.75
2023-05-02T01:37:10.948Z,996.75
2023-05-02T01:38:10.930Z,996.74
2023-05-02T01:39:10.908Z,996.77
2023-05-02T01:40:10.941Z,996.69
2023-05-02T01:41:10.901Z,996.76
2023-05-02T01:42:10.892Z,996.75
2023-05-02T01:43:10.880Z,996.75
2023-05-02T01:44:10.879Z,996.72
2023-05-02T01:45:10.880Z,996.72
2023-05-02T01:46:10.898Z,996.74
2023-05-02T01:47:10.993Z,996.72
2023-05-02T01:48:10.856Z,996.73
2023-05-02T01:49:10.821Z,996.74
2023-05-02T01:50:10.824Z,996.75
2023-05-02T01:51:10.812Z,996.79
2023-05-02T01:52:10.783Z,996.73
2023-05-02T01:53:10.779Z,996.72
2023-05-02T01:54:10.778Z,996.72
2023-05-02T01:55:10.782Z,996.73
2023-05-02T01:56:10.749Z,996.74
2023-05-02T01:57:10.748Z,996.75
2023-05-02T01:58:10.733Z,996.78
2023-05-02T01:59:10.719Z,996.79
2023-05-02T02:00:10.723Z,996.83
2023-05-02T02:01:10.725Z,996.83
2023-05-02T02:02:10.690Z,996.84
2023-05-02T02:03:10.749Z,996.93
2023-05-02T02:04:10.744Z,996.87
2023-05-02T02:05:10.663Z,996.89
2023-05-02T02:06:10.705Z,996.89
2023-05-02T02:07:10.630Z,996.89
2023-05-02T02:08:10.625Z,996.85
2023-05-02T02:09:10.617Z,996.90
2023-05-02T02:10:10.633Z,996.89
2023-05-02T02:11:10.599Z,996.89
2023-05-02T02:12:11.385Z,996.89
2023-05-02T02:13:10.575Z,996.89
2023-05-02T02:14:10.565Z,996.93
2023-05-02T02:15:10.577Z,996.90
2023-05-02T02:16:10.559Z,996.91
2023-05-02T02:17:10.560Z,996.93
2023-05-02T02:18:10.675Z,996.93
2023-05-02T02:19:10.509Z,996.96
2023-05-02T02:20:10.513Z,996.93
2023-05-02T02:21:10.489Z,996.99
2023-05-02T02:22:10.477Z,996.99
2023-05-02T02:23:10.460Z,997.03
2023-05-02T02:24:10.460Z,997.05
2023-05-02T02:25:10.457Z,997.06
2023-05-02T02:26:10.462Z,997.03
2023-05-02T02:27:10.422Z,997.07
2023-05-02T02:28:10.420Z,997.03
2023-05-02T02:29:10.399Z,997.05
2023-05-02T02:30:10.418Z,997.09
2023-05-02T02:31:10.399Z,997.11
2023-05-02T02:32:10.387Z,997.07
2023-05-02T02:33:10.384Z,997.08
2023-05-02T02:34:10.365Z,997.08
2023-05-02T02:35:10.369Z,997.04
2023-05-02T02:36:10.344Z,997.12
2023-05-02T02:37:10.313Z,997.12
2023-05-02T02:38:10.331Z,997.09
2023-05-02T02:39:10.301Z,997.14
2023-05-02T02:40:10.318Z,997.10
2023-05-02T02:41:10.274Z,997.11
2023-05-02T02:42:10.295Z,997.20
2023-05-02T02:43:10.263Z,997.15
2023-05-02T02:44:12.154Z,997.18
2023-05-02T02:45:10.266Z,997.18
2023-05-02T02:46:10.256Z,997.21
2023-05-02T02:47:10.217Z,997.20
2023-05-02T02:48:10.256Z,997.15
2023-05-02T02:49:10.201Z,997.24
2023-05-02T02:50:10.200Z,997.20
2023-05-02T02:51:10.197Z,997.22
2023-05-02T02:52:10.168Z,997.19
2023-05-02T02:53:10.155Z,997.27
2023-05-02T02:54:23.001Z,997.26
2023-05-02T02:55:11.141Z,997.28
2023-05-02T02:56:10.144Z,997.31
2023-05-02T02:57:10.122Z,997.29
2023-05-02T02:58:10.101Z,997.32
2023-05-02T02:59:10.082Z,997.34
2023-05-02T03:00:10.083Z,997.33
2023-05-02T03:01:10.143Z,997.39
2023-05-02T03:02:10.170Z,997.39
2023-05-02T03:03:10.128Z,997.42
2023-05-02T03:04:10.118Z,997.45
2023-05-02T03:05:10.048Z,997.38
2023-05-02T03:06:10.079Z,997.45
2023-05-02T03:07:10.011Z,997.45
2023-05-02T03:08:10.003Z,997.48
2023-05-02T03:09:09.994Z,997.48
2023-05-02T03:10:09.975Z,997.46
2023-05-02T03:11:09.987Z,997.46
2023-05-02T03:12:09.962Z,997.50
2023-05-02T03:13:09.953Z,997.50
2023-05-02T03:14:09.933Z,997.48
2023-05-02T03:15:09.936Z,997.49
2023-05-02T03:16:09.985Z,997.52
2023-05-02T03:17:09.921Z,997.52
2023-05-02T03:18:09.935Z,997.57
2023-05-02T03:19:09.886Z,997.56
2023-05-02T03:20:09.882Z,997.53
2023-05-02T03:21:09.887Z,997.57
2023-05-02T03:22:09.861Z,997.58
2023-05-02T03:23:09.846Z,997.55
2023-05-02T03:24:09.840Z,997.62
2023-05-02T03:25:09.823Z,997.61
2023-05-02T03:26:09.853Z,997.60
2023-05-02T03:27:09.812Z,997.63
2023-05-02T03:28:09.791Z,997.62
2023-05-02T03:29:09.787Z,997.60
2023-05-02T03:30:09.785Z,997.64
2023-05-02T03:31:09.810Z,997.70
2023-05-02T03:32:09.858Z,997.69
2023-05-02T03:33:09.831Z,997.64
2023-05-02T03:34:09.747Z,997.63
2023-05-02T03:35:09.727Z,997.64
2023-05-02T03:36:09.721Z,997.68
2023-05-02T03:37:09.723Z,997.69
2023-05-02T03:38:09.694Z,997.75
2023-05-02T03:39:09.682Z,997.83
2023-05-02T03:40:09.672Z,997.78
2023-05-02T03:41:09.680Z,997.76
2023-05-02T03:42:09.654Z,997.75
2023-05-02T03:43:09.643Z,997.85
2023-05-02T03:44:09.631Z,997.94
2023-05-02T03:45:09.632Z,997.84
2023-05-02T03:46:09.629Z,997.92
2023-05-02T03:47:09.680Z,997.88
2023-05-02T03:48:09.627Z,997.92
2023-05-02T03:49:09.576Z,997.92
2023-05-02T03:50:09.568Z,997.91
2023-05-02T03:51:09.586Z,997.96
2023-05-02T03:52:09.562Z,997.95
2023-05-02T03:53:09.558Z,997.91
2023-05-02T03:54:09.524Z,997.97
2023-05-02T03:55:09.526Z,997.99
2023-05-02T03:56:09.543Z,998.00
2023-05-02T03:57:09.505Z,997.98
2023-05-02T03:58:09.499Z,997.99
2023-05-02T03:59:09.496Z,998.02
2023-05-02T04:00:09.475Z,997.99
2023-05-02T04:01:09.485Z,997.97
2023-05-02T04:02:09.566Z,998.05
2023-05-02T04:03:09.506Z,998.01
2023-05-02T04:04:09.454Z,998.01
2023-05-02T04:05:09.422Z,997.99
2023-05-02T04:06:09.485Z,998.02
2023-05-02T04:07:09.417Z,998.03
2023-05-02T04:08:09.382Z,998.04
2023-05-02T04:09:09.377Z,998.09
2023-05-02T04:10:09.360Z,998.06
2023-05-02T04:11:09.448Z,998.09
2023-05-02T04:12:09.348Z,998.06
2023-05-02T04:13:09.339Z,998.10
2023-05-02T04:14:09.464Z,998.12
2023-05-02T04:15:09.404Z,998.13
2023-05-02T04:16:09.389Z,998.14
2023-05-02T04:17:09.478Z,998.21
2023-05-02T04:18:09.327Z,998.21
2023-05-02T04:19:09.274Z,998.23
2023-05-02T04:20:09.369Z,998.19
2023-05-02T04:21:09.283Z,998.26
2023-05-02T04:22:09.203Z,998.26
2023-05-02T04:23:09.198Z,998.28
2023-05-02T04:24:09.163Z,998.29
2023-05-02T04:25:09.181Z,998.30
2023-05-02T04:26:09.170Z,998.30
2023-05-02T04:27:09.146Z,998.33
2023-05-02T04:28:09.181Z,998.31
2023-05-02T04:29:09.175Z,998.34
2023-05-02T04:30:09.154Z,998.36
2023-05-02T04:31:09.225Z,998.35
2023-05-02T04:32:09.138Z,998.37
2023-05-02T04:33:09.183Z,998.35
2023-05-02T04:34:09.138Z,998.41
2023-05-02T04:35:09.107Z,998.42
2023-05-02T04:36:09.116Z,998.44
2023-05-02T04:37:09.089Z,998.47
2023-05-02T04:38:09.068Z,998.48
2023-05-02T04:39:09.073Z,998.49
2023-05-02T04:40:09.061Z,998.49
2023-05-02T04:41:09.734Z,998.50
2023-05-02T04:42:09.037Z,998.48
2023-05-02T04:43:08.978Z,998.52
2023-05-02T04:44:09.018Z,998.45
2023-05-02T04:45:09.009Z,998.48
2023-05-02T04:46:09.078Z,998.52
2023-05-02T04:47:09.007Z,998.55
2023-05-02T04:48:09.029Z,998.63
2023-05-02T04:49:08.963Z,998.61
2023-05-02T04:50:08.955Z,998.60
2023-05-02T04:51:08.952Z,998.61
2023-05-02T04:52:08.904Z,998.62
2023-05-02T04:53:08.940Z,998.71
2023-05-02T04:54:08.880Z,998.65
2023-05-02T04:55:08.868Z,998.71
2023-05-02T04:56:08.829Z,998.74
2023-05-02T04:57:08.848Z,998.75
2023-05-02T04:58:08.813Z,998.73
2023-05-02T04:59:08.822Z,998.77
2023-05-02T05:00:08.791Z,998.80
2023-05-02T05:01:08.860Z,998.84
2023-05-02T05:02:08.976Z,998.86
2023-05-02T05:03:08.845Z,998.83
2023-05-02T05:04:08.943Z,998.87
2023-05-02T05:05:08.768Z,998.86
2023-05-02T05:06:08.773Z,998.90
2023-05-02T05:07:08.757Z,998.91
2023-05-02T05:08:08.729Z,998.88
2023-05-02T05:09:08.709Z,998.88
2023-05-02T05:10:08.712Z,998.91
2023-05-02T05:11:08.750Z,998.94
2023-05-02T05:12:08.746Z,998.93
2023-05-02T05:13:08.722Z,998.91
2023-05-02T05:14:08.705Z,998.97
2023-05-02T05:15:08.665Z,998.97
2023-05-02T05:16:08.656Z,998.95
2023-05-02T05:17:08.655Z,998.97
2023-05-02T05:18:08.702Z,999.00
2023-05-02T05:19:08.629Z,999.05
2023-05-02T05:20:09.593Z,999.03
2023-05-02T05:21:08.590Z,999.04
2023-05-02T05:22:08.592Z,999.07
2023-05-02T05:23:08.636Z,999.08
2023-05-02T05:24:08.601Z,999.03
2023-05-02T05:25:08.598Z,999.05
2023-05-02T05:26:08.586Z,999.07
2023-05-02T05:27:08.608Z,999.09
2023-05-02T05:28:08.566Z,999.12
2023-05-02T05:29:08.655Z,999.13
2023-05-02T05:30:08.553Z,999.13
2023-05-02T05:31:08.581Z,999.14
2023-05-02T05:32:08.586Z,999.15
2023-05-02T05:33:08.541Z,999.14
2023-05-02T05:34:08.605Z,999.15
2023-05-02T05:35:08.594Z,999.13
2023-05-02T05:36:08.483Z,999.24
2023-05-02T05:37:08.499Z,999.24
2023-05-02T05:38:08.414Z,999.24
2023-05-02T05:39:08.460Z,999.31
2023-05-02T05:40:08.437Z,999.30
2023-05-02T05:41:08.441Z,999.30
2023-05-02T05:42:08.441Z,999.26
2023-05-02T05:43:08.430Z,999.34
2023-05-02T05:44:08.422Z,999.35
2023-05-02T05:45:08.357Z,999.34
2023-05-02T05:46:08.324Z,999.35
2023-05-02T05:47:08.350Z,999.35
2023-05-02T05:48:08.443Z,999.32
2023-05-02T05:49:08.300Z,999.30
2023-05-02T05:50:08.281Z,999.29
2023-05-02T05:51:08.277Z,999.33
2023-05-02T05:52:08.287Z,999.33
2023-05-02T05:53:08.258Z,999.38
2023-05-02T05:54:08.249Z,999.37
2023-05-02T05:55:08.235Z,999.40
2023-05-02T05:56:08.214Z,999.45
2023-05-02T05:57:08.228Z,999.44
2023-05-02T05:58:08.199Z,999.46
2023-05-02T05:59:08.195Z,999.43
2023-05-02T06:00:08.186Z,999.46
2023-05-02T06:01:08.172Z,999.46
2023-05-02T06:02:08.230Z,999.47
2023-05-02T06:03:09.717Z,999.49
2023-05-02T06:04:08.270Z,999.44
2023-05-02T06:05:08.237Z,999.47
2023-05-02T06:06:08.178Z,999.51
2023-05-02T06:07:08.137Z,999.55
2023-05-02T06:08:08.106Z,999.57
2023-05-02T06:09:08.092Z,999.56
2023-05-02T06:10:08.075Z,999.59
2023-05-02T06:11:08.071Z,999.60
2023-05-02T06:12:08.076Z,999.58
2023-05-02T06:13:08.060Z,999.62
2023-05-02T06:14:08.042Z,999.66
2023-05-02T06:15:08.038Z,999.69
2023-05-02T06:16:08.078Z,999.69
2023-05-02T06:17:08.032Z,999.71
2023-05-02T06:18:08.037Z,999.66
2023-05-02T06:19:07.993Z,999.69
2023-05-02T06:20:07.992Z,999.68
2023-05-02T06:21:07.969Z,999.69
2023-05-02T06:22:07.989Z,999.70
2023-05-02T06:23:07.950Z,999.69
2023-05-02T06:24:07.942Z,999.75
2023-05-02T06:25:07.928Z,999.80
2023-05-02T06:26:07.935Z,999.77
2023-05-02T06:27:07.933Z,999.81
2023-05-02T06:28:07.894Z,999.83
2023-05-02T06:29:07.891Z,999.85
2023-05-02T06:30:07.876Z,999.82
2023-05-02T06:31:07.925Z,999.89
2023-05-02T06:32:07.928Z,999.86
2023-05-02T06:33:07.927Z,999.92
2023-05-02T06:34:07.885Z,999.94
2023-05-02T06:35:07.821Z,999.89
2023-05-02T06:36:07.810Z,999.94
2023-05-02T06:37:07.823Z,1000.02
2023-05-02T06:38:07.805Z,1000.00
2023-05-02T06:39:07.819Z,1000.00
2023-05-02T06:40:07.769Z,1000.01
2023-05-02T06:41:07.788Z,1000.09
2023-05-02T06:42:07.766Z,1000.05
2023-05-02T06:43:07.747Z,1000.07
2023-05-02T06:44:07.734Z,1000.06
2023-05-02T06:45:07.746Z,1000.04
2023-05-02T06:46:07.710Z,1000.07
2023-05-02T06:47:07.904Z,1000.09
2023-05-02T06:48:07.754Z,1000.10
2023-05-02T06:49:07.683Z,1000.16
2023-05-02T06:50:07.688Z,1000.16
2023-05-02T06:51:07.666Z,1000.17
2023-05-02T06:52:07.659Z,1000.18
2023-05-02T06:53:07.653Z,1000.14
2023-05-02T06:54:07.636Z,1000.14
2023-05-02T06:55:07.641Z,1000.24
2023-05-02T06:56:07.621Z,1000.16
2023-05-02T06:57:07.610Z,1000.24
2023-05-02T06:58:07.616Z,1000.25
2023-05-02T06:59:07.590Z,1000.30
2023-05-02T07:00:07.571Z,1000.33
2023-05-02T07:01:07.588Z,1000.29
2023-05-02T07:02:07.540Z,1000.30
2023-05-02T07:03:07.589Z,1000.31
2023-05-02T07:04:07.556Z,1000.34
2023-05-02T07:05:07.546Z,1000.24
2023-05-02T07:06:07.544Z,1000.31
2023-05-02T07:07:07.495Z,1000.36
2023-05-02T07:08:07.507Z,1000.38
2023-05-02T07:09:07.475Z,1000.40
2023-05-02T07:10:07.459Z,1000.39
2023-05-02T07:11:07.460Z,1000.42
2023-05-02T07:12:07.435Z,1000.43
2023-05-02T07:13:07.467Z,1000.46
2023-05-02T07:14:07.424Z,1000.46
2023-05-02T07:15:07.418Z,1000.48
2023-05-02T07:16:07.454Z,1000.46
2023-05-02T07:17:07.422Z,1000.39
2023-05-02T07:18:07.490Z,1000.43
2023-05-02T07:19:07.489Z,1000.43
2023-05-02T07:20:07.367Z,1000.47
2023-05-02T07:21:07.366Z,1000.46
2023-05-02T07:22:07.338Z,1000.41
2023-05-02T07:23:07.373Z,1000.46
2023-05-02T07:24:07.321Z,1000.49
2023-05-02T07:25:07.355Z,1000.48
2023-05-02T07:26:07.310Z,1000.46
2023-05-02T07:27:07.303Z,1000.52
2023-05-02T07:28:07.324Z,1000.53
2023-05-02T07:29:07.267Z,1000.50
2023-05-02T07:30:07.274Z,1000.57
2023-05-02T07:31:07.247Z,1000.57
2023-05-02T07:32:07.341Z,1000.56
2023-05-02T07:33:07.283Z,1000.57
2023-05-02T07:34:07.227Z,1000.59
2023-05-02T07:35:07.206Z,1000.60
2023-05-02T07:36:07.208Z,1000.61
2023-05-02T07:37:07.201Z,1000.59
2023-05-02T07:38:07.192Z,1000.62
2023-05-02T07:39:07.204Z,1000.63
2023-05-02T07:40:07.161Z,1000.60
2023-05-02T07:41:07.138Z,1000.64
2023-05-02T07:42:07.136Z,1000.63
2023-05-02T07:43:08.796Z,1000.62
2023-05-02T07:44:07.125Z,1000.60
2023-05-02T07:45:07.117Z,1000.65
2023-05-02T07:46:07.194Z,1000.69
2023-05-02T07:47:07.084Z,1000.69
2023-05-02T07:48:07.125Z,1000.65
2023-05-02T07:49:07.068Z,1000.68
2023-05-02T07:50:07.071Z,1000.68
2023-05-02T07:51:07.038Z,1000.71
2023-05-02T07:52:07.088Z,1000.70
2023-05-02T07:53:07.038Z,1000.71
2023-05-02T07:54:07.010Z,1000.74
2023-05-02T07:55:07.009Z,1000.77
2023-05-02T07:56:07.010Z,1000.76
2023-05-02T07:57:06.980Z,1000.79
2023-05-02T07:58:06.993Z,1000.76
2023-05-02T07:59:06.960Z,1000.80
2023-05-02T08:00:06.964Z,1000.78
2023-05-02T08:01:06.954Z,1000.79
2023-05-02T08:02:07.021Z,1000.85
2023-05-02T08:03:07.017Z,1000.85
2023-05-02T08:04:06.979Z,1000.86
2023-05-02T08:05:06.934Z,1000.88
2023-05-02T08:06:06.904Z,1000.91
2023-05-02T08:07:06.874Z,1000.89
2023-05-02T08:08:06.895Z,1000.90
2023-05-02T08:09:06.857Z,1000.87
2023-05-02T08:10:06.867Z,1000.91
2023-05-02T08:11:06.850Z,1000.90
2023-05-02T08:12:06.829Z,1000.90
2023-05-02T08:13:06.843Z,1000.84
2023-05-02T08:14:06.808Z,1000.99
2023-05-02T08:15:06.799Z,1001.03
2023-05-02T08:16:06.867Z,1001.00
2023-05-02T08:17:06.772Z,1001.04
2023-05-02T08:18:06.830Z,1001.03
2023-05-02T08:19:06.756Z,1001.08
2023-05-02T08:20:06.739Z,1001.11
2023-05-02T08:21:06.729Z,1001.11
2023-05-02T08:22:06.723Z,1001.09
2023-05-02T08:23:06.743Z,1001.07
2023-05-02T08:24:06.725Z,1001.07
2023-05-02T08:25:06.692Z,1001.09
2023-05-02T08:26:06.704Z,1001.17
2023-05-02T08:27:06.679Z,1001.18
2023-05-02T08:28:06.686Z,1001.03
2023-05-02T08:29:06.688Z,1001.07
2023-05-02T08:30:07.051Z,1001.12
2023-05-02T08:31:06.712Z,1001.13
2023-05-02T08:32:06.715Z,1001.15
2023-05-02T08:33:06.715Z,1001.20
2023-05-02T08:34:06.604Z,1001.16
2023-05-02T08:35:06.586Z,1001.17
2023-05-02T08:36:06.578Z,1001.22
2023-05-02T08:37:06.572Z,1001.25
2023-05-02T08:38:06.579Z,1001.25
2023-05-02T08:39:06.546Z,1001.29
2023-05-02T08:40:06.587Z,1001.31
2023-05-02T08:41:06.540Z,1001.29
2023-05-02T08:42:06.531Z,1001.34
2023-05-02T08:43:06.532Z,1001.39
2023-05-02T08:44:06.504Z,1001.34
2023-05-02T08:45:06.487Z,1001.37
2023-05-02T08:46:06.472Z,1001.37
2023-05-02T08:47:06.518Z,1001.41
2023-05-02T08:48:06.512Z,1001.45
2023-05-02T08:49:06.455Z,1001.44
2023-05-02T08:50:06.467Z,1001.44
2023-05-02T08:51:06.425Z,1001.38
2023-05-02T08:52:06.559Z,1001.42
2023-05-02T08:53:06.423Z,1001.41
2023-05-02T08:54:06.404Z,1001.43
2023-05-02T08:55:06.388Z,1001.46
2023-05-02T08:56:06.388Z,1001.48
2023-05-02T08:57:06.361Z,1001.44
2023-05-02T08:58:06.369Z,1001.55
2023-05-02T08:59:06.333Z,1001.61
2023-05-02T09:00:06.349Z,1001.59
2023-05-02T09:01:06.371Z,1001.61
2023-05-02T09:02:06.312Z,1001.65
2023-05-02T09:03:06.407Z,1001.73
2023-05-02T09:04:06.343Z,1001.73
2023-05-02T09:05:06.313Z,1001.73
2023-05-02T09:06:06.304Z,1001.84
2023-05-02T09:07:06.420Z,1001.84
2023-05-02T09:08:06.265Z,1001.84
2023-05-02T09:09:06.241Z,1001.92
2023-05-02T09:10:06.226Z,1001.88
2023-05-02T09:11:06.222Z,1001.85
2023-05-02T09:12:06.219Z,1001.91
2023-05-02T09:13:06.213Z,1001.97
2023-05-02T09:14:06.196Z,1001.96
2023-05-02T09:15:06.172Z,1001.91
2023-05-02T09:16:06.231Z,1001.99
2023-05-02T09:17:06.249Z,1001.99
2023-05-02T09:18:06.193Z,1002.02
2023-05-02T09:19:06.130Z,1002.00
2023-05-02T09:20:06.123Z,1002.10
2023-05-02T09:21:06.111Z,1002.01
2023-05-02T09:22:06.121Z,1002.07
2023-05-02T09:23:06.123Z,1002.11
2023-05-02T09:24:06.082Z,1002.17
2023-05-02T09:25:06.066Z,1002.15
2023-05-02T09:26:06.076Z,1002.19
2023-05-02T09:27:06.050Z,1002.20
2023-05-02T09:28:06.061Z,1002.18
2023-05-02T09:29:06.032Z,1002.17
2023-05-02T09:30:06.021Z,1002.21
2023-05-02T09:31:06.054Z,1002.29
2023-05-02T09:32:06.051Z,1002.32
2023-05-02T09:33:06.019Z,1002.20
2023-05-02T09:34:05.978Z,1002.21
2023-05-02T09:35:05.967Z,1002.23
2023-05-02T09:36:05.957Z,1002.26
2023-05-02T09:37:05.959Z,1002.24
2023-05-02T09:38:05.961Z,1002.29
2023-05-02T09:39:05.932Z,1002.22
2023-05-02T09:40:05.918Z,1002.25
2023-05-02T09:41:05.911Z,1002.23
2023-05-02T09:42:05.904Z,1002.26
2023-05-02T09:43:05.900Z,1002.28
2023-05-02T09:44:05.883Z,1002.24
2023-05-02T09:45:05.862Z,1002.31
2023-05-02T09:46:05.905Z,1002.28
2023-05-02T09:47:05.839Z,1002.30
2023-05-02T09:48:05.891Z,1002.30
2023-05-02T09:49:05.826Z,1002.28
2023-05-02T09:50:05.815Z,1002.32
2023-05-02T09:51:05.812Z,1002.36
2023-05-02T09:52:05.797Z,1002.40
2023-05-02T09:53:06.108Z,1002.38
2023-05-02T09:54:05.787Z,1002.44
2023-05-02T09:55:05.767Z,1002.39
2023-05-02T09:56:05.754Z,1002.43
2023-05-02T09:57:05.736Z,1002.44
2023-05-02T09:58:05.762Z,1002.46
2023-05-02T09:59:05.715Z,1002.42
2023-05-02T10:00:05.715Z,1002.49
2023-05-02T10:01:05.740Z,1002.49
2023-05-02T10:02:05.685Z,1002.42
2023-05-02T10:03:05.717Z,1002.48
2023-05-02T10:04:05.777Z,1002.51
2023-05-02T10:05:05.653Z,1002.49
2023-05-02T10:06:05.727Z,1002.54
2023-05-02T10:07:05.638Z,1002.54
2023-05-02T10:08:05.642Z,1002.50
2023-05-02T10:09:05.612Z,1002.52
2023-05-02T10:10:05.621Z,1002.60
2023-05-02T10:11:05.603Z,1002.61
2023-05-02T10:12:05.610Z,1002.58
2023-05-02T10:13:05.597Z,1002.52
2023-05-02T10:14:05.601Z,1002.63
2023-05-02T10:15:05.580Z,1002.56
2023-05-02T10:16:05.590Z,1002.60
2023-05-02T10:17:05.540Z,1002.59
2023-05-02T10:18:05.604Z,1002.56
2023-05-02T10:19:05.525Z,1002.61
2023-05-02T10:20:05.514Z,1002.61
2023-05-02T10:21:05.498Z,1002.61
2023-05-02T10:22:05.486Z,1002.65
2023-05-02T10:23:05.487Z,1002.68
2023-05-02T10:24:05.465Z,1002.61
2023-05-02T10:25:05.457Z,1002.61
2023-05-02T10:26:05.436Z,1002.69
2023-05-02T10:27:05.437Z,1002.74
2023-05-02T10:28:05.442Z,1002.74
2023-05-02T10:29:05.409Z,1002.75
2023-05-02T10:30:05.408Z,1002.72
2023-05-02T10:31:05.437Z,1002.72
2023-05-02T10:32:05.512Z,1002.74
2023-05-02T10:33:05.436Z,1002.67
2023-05-02T10:34:05.363Z,1002.66
2023-05-02T10:35:05.383Z,1002.66
2023-05-02T10:36:05.347Z,1002.67
2023-05-02T10:37:05.330Z,1002.71
2023-05-02T10:38:05.354Z,1002.68
2023-05-02T10:39:05.304Z,1002.73
2023-05-02T10:40:05.311Z,1002.77
2023-05-02T10:41:05.304Z,1002.75
2023-05-02T10:42:05.284Z,1002.80
2023-05-02T10:43:05.281Z,1002.74
2023-05-02T10:44:05.263Z,1002.71
2023-05-02T10:45:05.244Z,1002.75
2023-05-02T10:46:05.243Z,1002.71
2023-05-02T10:47:05.249Z,1002.70
2023-05-02T10:48:05.252Z,1002.75
2023-05-02T10:49:05.198Z,1002.74
2023-05-02T10:50:05.201Z,1002.77
2023-05-02T10:51:05.186Z,1002.77
2023-05-02T10:52:05.171Z,1002.77
2023-05-02T10:53:05.179Z,1002.84
2023-05-02T10:54:05.157Z,1002.79
2023-05-02T10:55:05.154Z,1002.81
2023-05-02T10:56:05.137Z,1002.84
2023-05-02T10:57:05.118Z,1002.88
2023-05-02T10:58:05.145Z,1002.84
2023-05-02T10:59:05.139Z,1002.84
2023-05-02T11:00:05.115Z,1002.87
2023-05-02T11:01:05.109Z,1002.81
2023-05-02T11:02:07.149Z,1002.90
2023-05-02T11:03:05.136Z,1002.86
2023-05-02T11:04:05.065Z,1002.95
2023-05-02T11:05:05.302Z,1002.90
2023-05-02T11:06:05.058Z,1002.97
2023-05-02T11:07:05.019Z,1003.03
2023-05-02T11:08:05.030Z,1003.10
2023-05-02T11:09:04.994Z,1003.07
2023-05-02T11:10:04.996Z,1003.13
2023-05-02T11:11:04.973Z,1003.17
2023-05-02T11:12:04.992Z,1003.14
2023-05-02T11:13:04.978Z,1003.16
2023-05-02T11:14:04.953Z,1003.18
2023-05-02T11:15:04.930Z,1003.24
2023-05-02T11:16:04.942Z,1003.21
2023-05-02T11:17:04.957Z,1003.16
2023-05-02T11:18:04.981Z,1003.23
2023-05-02T11:19:04.893Z,1003.22
2023-05-02T11:20:04.899Z,1003.29
2023-05-02T11:21:04.873Z,1003.25
2023-05-02T11:22:04.873Z,1003.21
2023-05-02T11:23:04.869Z,1003.26
2023-05-02T11:24:04.847Z,1003.24
2023-05-02T11:25:04.833Z,1003.26
2023-05-02T11:26:04.842Z,1003.27
2023-05-02T11:27:04.813Z,1003.27
2023-05-02T11:28:04.821Z,1003.25
2023-05-02T11:29:04.792Z,1003.21
2023-05-02T11:30:04.789Z,1003.28
2023-05-02T11:31:04.767Z,1003.27
2023-05-02T11:32:04.834Z,1003.24
2023-05-02T11:33:04.823Z,1003.28
2023-05-02T11:34:04.757Z,1003.29
2023-05-02T11:35:04.736Z,1003.23
2023-05-02T11:36:04.717Z,1003.29
2023-05-02T11:37:04.706Z,1003.30
2023-05-02T11:38:04.774Z,1003.34
2023-05-02T11:39:04.687Z,1003.36
2023-05-02T11:40:04.671Z,1003.36
2023-05-02T11:41:04.713Z,1003.33
2023-05-02T11:42:04.657Z,1003.42
2023-05-02T11:43:04.666Z,1003.40
2023-05-02T11:44:04.665Z,1003.33
2023-05-02T11:45:04.850Z,1003.41
2023-05-02T11:46:04.666Z,1003.39
2023-05-02T11:47:04.612Z,1003.46
2023-05-02T11:48:04.665Z,1003.51
2023-05-02T11:49:06.287Z,1003.46
2023-05-02T11:50:04.585Z,1003.53
2023-05-02T11:51:04.568Z,1003.45
2023-05-02T11:52:04.557Z,1003.46
2023-05-02T11:53:04.561Z,1003.46
2023-05-02T11:54:04.537Z,1003.41
2023-05-02T11:55:04.616Z,1003.46
2023-05-02T11:56:04.763Z,1003.45
2023-05-02T11:57:04.509Z,1003.52
2023-05-02T11:58:04.518Z,1003.50
2023-05-02T11:59:04.491Z,1003.54
2023-05-02T12:00:04.485Z,1003.50
2023-05-02T12:01:04.465Z,1003.52
2023-05-02T12:02:04.466Z,1003.58
2023-05-02T12:03:04.565Z,1003.56
2023-05-02T12:04:04.431Z,1003.59
2023-05-02T12:05:04.817Z,1003.65
2023-05-02T12:06:04.590Z,1003.70
2023-05-02T12:07:04.516Z,1003.71
2023-05-02T12:08:04.416Z,1003.71
2023-05-02T12:09:04.391Z,1003.66
2023-05-02T12:10:04.386Z,1003.70
2023-05-02T12:11:04.373Z,1003.66
2023-05-02T12:12:04.350Z,1003.58
2023-05-02T12:13:04.361Z,1003.63
2023-05-02T12:14:04.332Z,1003.62
2023-05-02T12:15:04.498Z,1003.64
2023-05-02T12:16:04.392Z,1003.64
2023-05-02T12:17:04.301Z,1003.61